createdAt,value
2023-05-25T00:00:32.752Z,463.00
2023-05-25T00:01:32.779Z,463.00
2023-05-25T00:02:33.025Z,463.00
2023-05-25T00:03:33.248Z,462.00
2023-05-25T00:04:33.048Z,466.00
2023-05-25T00:05:32.963Z,465.00
2023-05-25T00:06:32.993Z,464.00
2023-05-25T00:07:33.068Z,465.00
2023-05-25T00:08:33.109Z,465.00
2023-05-25T00:09:33.118Z,463.00
2023-05-25T00:10:33.123Z,463.00
2023-05-25T00:11:33.156Z,465.00
2023-05-25T00:12:33.195Z,464.00
2023-05-25T00:13:33.232Z,463.00
2023-05-25T00:14:33.226Z,461.00
2023-05-25T00:15:33.248Z,463.00
2023-05-25T00:16:33.297Z,463.00
2023-05-25T00:17:33.305Z,460.00
2023-05-25T00:18:33.345Z,457.00
2023-05-25T00:19:33.372Z,459.00
2023-05-25T00:20:33.434Z,460.00
2023-05-25T00:21:33.430Z,456.00
2023-05-25T00:22:33.479Z,457.00
2023-05-25T00:23:33.519Z,460.00
2023-05-25T00:24:33.565Z,460.00
2023-05-25T00:25:33.610Z,462.00
2023-05-25T00:26:33.660Z,463.00
2023-05-25T00:27:33.672Z,463.00
2023-05-25T00:28:33.770Z,463.00
2023-05-25T00:29:33.793Z,460.00
2023-05-25T00:30:33.841Z,462.00
2023-05-25T00:31:33.943Z,464.00
2023-05-25T00:32:33.981Z,463.00
2023-05-25T00:33:33.908Z,463.00
2023-05-25T00:34:33.970Z,463.00
2023-05-25T00:35:34.023Z,464.00
2023-05-25T00:36:34.041Z,461.00
2023-05-25T00:37:34.060Z,460.00
2023-05-25T00:38:34.117Z,462.00
2023-05-25T00:39:34.151Z,461.00
2023-05-25T00:40:34.189Z,459.00
2023-05-25T00:41:34.190Z,458.00
2023-05-25T00:42:34.259Z,457.00
2023-05-25T00:43:34.279Z,457.00
2023-05-25T00:44:34.316Z,455.00
2023-05-25T00:45:34.360Z,454.00
2023-05-25T00:46:34.461Z,456.00
2023-05-25T00:47:34.398Z,456.00
2023-05-25T00:48:34.399Z,454.00
2023-05-25T00:49:34.427Z,455.00
2023-05-25T00:50:34.493Z,456.00
2023-05-25T00:51:34.484Z,459.00
2023-05-25T00:52:34.507Z,456.00
2023-05-25T00:53:34.539Z,456.00
2023-05-25T00:54:34.534Z,453.00
2023-05-25T00:55:34.555Z,452.00
2023-05-25T00:56:34.572Z,452.00
2023-05-25T00:57:34.579Z,452.00
2023-05-25T00:58:34.606Z,454.00
2023-05-25T00:59:34.664Z,452.00
2023-05-25T01:00:34.732Z,453.00
2023-05-25T01:01:34.760Z,456.00
2023-05-25T01:02:34.787Z,452.00
2023-05-25T01:03:34.866Z,454.00
2023-05-25T01:04:34.754Z,456.00
2023-05-25T01:05:34.799Z,458.00
2023-05-25T01:06:34.814Z,457.00
2023-05-25T01:07:34.845Z,459.00
2023-05-25T01:08:34.849Z,461.00
2023-05-25T01:09:34.831Z,462.00
2023-05-25T01:10:34.913Z,463.00
2023-05-25T01:11:34.984Z,466.00
2023-05-25T01:12:34.994Z,468.00
2023-05-25T01:13:35.005Z,467.00
2023-05-25T01:14:35.034Z,467.00
2023-05-25T01:15:35.035Z,465.00
2023-05-25T01:16:35.108Z,461.00
2023-05-25T01:17:35.161Z,463.00
2023-05-25T01:18:35.121Z,462.00
2023-05-25T01:19:35.131Z,463.00
2023-05-25T01:20:35.199Z,463.00
2023-05-25T01:21:35.196Z,465.00
2023-05-25T01:22:35.219Z,464.00
2023-05-25T01:23:35.222Z,464.00
2023-05-25T01:24:35.249Z,465.00
2023-05-25T01:25:35.218Z,464.00
2023-05-25T01:26:35.250Z,463.00
2023-05-25T01:27:35.280Z,466.00
2023-05-25T01:28:35.265Z,465.00
2023-05-25T01:29:35.253Z,466.00
2023-05-25T01:30:35.245Z,466.00
2023-05-25T01:31:35.310Z,466.00
2023-05-25T01:32:35.290Z,466.00
2023-05-25T01:33:35.278Z,466.00
2023-05-25T01:34:35.247Z,465.00
2023-05-25T01:35:35.283Z,464.00
2023-05-25T01:36:35.287Z,465.00
2023-05-25T01:37:35.308Z,465.00
2023-05-25T01:38:35.305Z,462.00
2023-05-25T01:39:35.436Z,461.00
2023-05-25T01:40:35.556Z,462.00
2023-05-25T01:41:35.662Z,465.00
2023-05-25T01:42:35.807Z,466.00
2023-05-25T01:43:35.930Z,466.00
2023-05-25T01:44:36.087Z,466.00
2023-05-25T01:45:36.304Z,466.00
2023-05-25T01:46:36.457Z,466.00
2023-05-25T01:47:36.512Z,465.00
2023-05-25T01:48:36.618Z,467.00
2023-05-25T01:49:36.725Z,465.00
2023-05-25T01:50:36.825Z,464.00
2023-05-25T01:51:36.983Z,466.00
2023-05-25T01:52:37.149Z,466.00
2023-05-25T01:53:37.246Z,465.00
2023-05-25T01:54:37.380Z,464.00
2023-05-25T01:55:37.525Z,465.00
2023-05-25T01:56:37.651Z,463.00
2023-05-25T01:57:37.799Z,465.00
2023-05-25T01:58:37.936Z,466.00
2023-05-25T01:59:38.096Z,468.00
2023-05-25T02:00:38.220Z,469.00
2023-05-25T02:01:38.406Z,469.00
2023-05-25T02:02:38.557Z,470.00
2023-05-25T02:03:38.606Z,471.00
2023-05-25T02:04:38.812Z,470.00
2023-05-25T02:05:38.864Z,466.00
2023-05-25T02:06:38.977Z,465.00
2023-05-25T02:07:39.132Z,465.00
2023-05-25T02:08:39.253Z,464.00
2023-05-25T02:09:39.376Z,466.00
2023-05-25T02:10:39.504Z,466.00
2023-05-25T02:11:39.617Z,465.00
2023-05-25T02:12:39.744Z,465.00
2023-05-25T02:13:39.845Z,466.00
2023-05-25T02:14:39.970Z,466.00
2023-05-25T02:15:40.245Z,469.00
2023-05-25T02:16:40.229Z,467.00
2023-05-25T02:17:40.386Z,467.00
2023-05-25T02:18:40.481Z,469.00
2023-05-25T02:19:40.507Z,466.00
2023-05-25T02:20:40.622Z,466.00
2023-05-25T02:21:40.560Z,466.00
2023-05-25T02:22:40.557Z,467.00
2023-05-25T02:23:40.949Z,468.00
2023-05-25T02:24:40.610Z,469.00
2023-05-25T02:25:40.589Z,468.00
2023-05-25T02:26:40.593Z,469.00
2023-05-25T02:27:40.616Z,471.00
2023-05-25T02:28:40.915Z,469.00
2023-05-25T02:29:40.633Z,468.00
2023-05-25T02:30:40.651Z,470.00
2023-05-25T02:31:40.713Z,472.00
2023-05-25T02:32:40.690Z,474.00
2023-05-25T02:33:40.911Z,472.00
2023-05-25T02:34:40.675Z,476.00
2023-05-25T02:35:40.822Z,473.00
2023-05-25T02:36:40.862Z,472.00
2023-05-25T02:37:40.900Z,474.00
2023-05-25T02:38:40.908Z,474.00
2023-05-25T02:39:40.905Z,470.00
2023-05-25T02:40:40.913Z,468.00
2023-05-25T02:41:41.052Z,470.00
2023-05-25T02:42:41.130Z,470.00
2023-05-25T02:43:41.262Z,471.00
2023-05-25T02:44:41.380Z,470.00
2023-05-25T02:45:41.455Z,471.00
2023-05-25T02:46:41.630Z,471.00
2023-05-25T02:47:41.700Z,471.00
2023-05-25T02:48:41.744Z,471.00
2023-05-25T02:49:41.910Z,470.00
2023-05-25T02:50:41.998Z,470.00
2023-05-25T02:51:42.114Z,467.00
2023-05-25T02:52:42.261Z,466.00
2023-05-25T02:53:42.408Z,467.00
2023-05-25T02:54:42.499Z,466.00
2023-05-25T02:55:42.657Z,466.00
2023-05-25T02:56:42.499Z,463.00
2023-05-25T02:57:42.534Z,465.00
2023-05-25T02:58:42.540Z,465.00
2023-05-25T02:59:42.535Z,467.00
2023-05-25T03:00:42.518Z,468.00
2023-05-25T03:01:42.593Z,468.00
2023-05-25T03:02:42.686Z,466.00
2023-05-25T03:03:42.704Z,466.00
2023-05-25T03:04:42.669Z,467.00
2023-05-25T03:05:42.820Z,468.00
2023-05-25T03:06:42.641Z,471.00
2023-05-25T03:07:42.670Z,468.00
2023-05-25T03:08:42.658Z,468.00
2023-05-25T03:09:42.645Z,467.00
2023-05-25T03:10:42.653Z,466.00
2023-05-25T03:11:42.748Z,467.00
2023-05-25T03:12:42.832Z,468.00
2023-05-25T03:13:42.923Z,468.00
2023-05-25T03:14:42.919Z,469.00
2023-05-25T03:15:43.160Z,471.00
2023-05-25T03:16:42.971Z,469.00
2023-05-25T03:17:43.010Z,470.00
2023-05-25T03:18:42.933Z,469.00
2023-05-25T03:19:42.934Z,465.00
2023-05-25T03:20:43.006Z,462.00
2023-05-25T03:21:43.034Z,464.00
2023-05-25T03:22:43.018Z,463.00
2023-05-25T03:23:43.054Z,463.00
2023-05-25T03:24:43.010Z,463.00
2023-05-25T03:25:43.220Z,464.00
2023-05-25T03:26:43.105Z,465.00
2023-05-25T03:27:43.131Z,463.00
2023-05-25T03:28:43.111Z,463.00
2023-05-25T03:29:43.091Z,463.00
2023-05-25T03:30:43.146Z,462.00
2023-05-25T03:31:43.169Z,463.00
2023-05-25T03:32:43.247Z,462.00
2023-05-25T03:33:43.203Z,461.00
2023-05-25T03:34:43.192Z,460.00
2023-05-25T03:35:43.441Z,463.00
2023-05-25T03:36:43.260Z,463.00
2023-05-25T03:37:43.245Z,462.00
2023-05-25T03:38:43.248Z,464.00
2023-05-25T03:39:43.241Z,462.00
2023-05-25T03:40:43.241Z,463.00
2023-05-25T03:41:43.258Z,465.00
2023-05-25T03:42:43.332Z,466.00
2023-05-25T03:43:43.329Z,461.00
2023-05-25T03:44:43.319Z,463.00
2023-05-25T03:45:43.467Z,462.00
2023-05-25T03:46:43.511Z,461.00
2023-05-25T03:47:43.467Z,460.00
2023-05-25T03:48:43.347Z,458.00
2023-05-25T03:49:43.354Z,458.00
2023-05-25T03:50:43.363Z,459.00
2023-05-25T03:51:43.472Z,461.00
2023-05-25T03:52:43.467Z,460.00
2023-05-25T03:53:43.451Z,460.00
2023-05-25T03:54:43.480Z,461.00
2023-05-25T03:55:43.701Z,460.00
2023-05-25T03:56:43.531Z,459.00
2023-05-25T03:57:43.624Z,457.00
2023-05-25T03:58:43.717Z,457.00
2023-05-25T03:59:43.811Z,454.00
2023-05-25T04:00:44.015Z,457.00
2023-05-25T04:01:44.146Z,456.00
2023-05-25T04:02:44.317Z,456.00
2023-05-25T04:03:44.565Z,457.00
2023-05-25T04:04:44.400Z,459.00
2023-05-25T04:05:44.590Z,460.00
2023-05-25T04:06:44.537Z,461.00
2023-05-25T04:07:44.728Z,461.00
2023-05-25T04:08:44.793Z,461.00
2023-05-25T04:09:44.804Z,463.00
2023-05-25T04:10:44.823Z,462.00
2023-05-25T04:11:44.819Z,461.00
2023-05-25T04:12:44.859Z,461.00
2023-05-25T04:13:44.867Z,459.00
2023-05-25T04:14:44.908Z,458.00
2023-05-25T04:15:45.034Z,458.00
2023-05-25T04:16:44.980Z,458.00
2023-05-25T04:17:44.978Z,461.00
2023-05-25T04:18:44.996Z,462.00
2023-05-25T04:19:44.992Z,463.00
2023-05-25T04:20:45.016Z,464.00
2023-05-25T04:21:45.020Z,465.00
2023-05-25T04:22:45.063Z,465.00
2023-05-25T04:23:45.114Z,465.00
2023-05-25T04:24:45.127Z,464.00
2023-05-25T04:25:45.216Z,463.00
2023-05-25T04:26:45.143Z,463.00
2023-05-25T04:27:45.166Z,461.00
2023-05-25T04:28:45.224Z,458.00
2023-05-25T04:29:45.321Z,458.00
2023-05-25T04:30:45.381Z,460.00
2023-05-25T04:31:45.414Z,458.00
2023-05-25T04:32:45.519Z,462.00
2023-05-25T04:33:45.395Z,462.00
2023-05-25T04:34:45.402Z,463.00
2023-05-25T04:35:45.692Z,465.00
2023-05-25T04:36:45.592Z,466.00
2023-05-25T04:37:45.635Z,466.00
2023-05-25T04:38:45.627Z,467.00
2023-05-25T04:39:45.774Z,467.00
2023-05-25T04:40:45.609Z,467.00
2023-05-25T04:41:45.664Z,468.00
2023-05-25T04:42:45.765Z,468.00
2023-05-25T04:43:56.854Z,472.00
2023-05-25T04:44:46.768Z,468.00
2023-05-25T04:45:45.905Z,467.00
2023-05-25T04:46:45.732Z,469.00
2023-05-25T04:47:45.743Z,463.00
2023-05-25T04:48:45.735Z,463.00
2023-05-25T04:49:45.736Z,463.00
2023-05-25T04:50:45.705Z,462.00
2023-05-25T04:51:45.711Z,462.00
2023-05-25T04:52:45.705Z,462.00
2023-05-25T04:53:45.704Z,463.00
2023-05-25T04:54:45.673Z,463.00
2023-05-25T04:55:45.931Z,463.00
2023-05-25T04:56:45.660Z,462.00
2023-05-25T04:57:45.658Z,460.00
2023-05-25T04:58:45.669Z,460.00
2023-05-25T04:59:45.647Z,459.00
2023-05-25T05:00:45.884Z,461.00
2023-05-25T05:01:45.686Z,460.00
2023-05-25T05:02:45.708Z,460.00
2023-05-25T05:03:45.684Z,459.00
2023-05-25T05:04:45.629Z,459.00
2023-05-25T05:05:45.824Z,459.00
2023-05-25T05:06:45.595Z,461.00
2023-05-25T05:07:45.586Z,462.00
2023-05-25T05:08:46.415Z,462.00
2023-05-25T05:09:45.592Z,459.00
2023-05-25T05:10:45.780Z,459.00
2023-05-25T05:11:45.621Z,462.00
2023-05-25T05:12:45.563Z,466.00
2023-05-25T05:13:45.613Z,467.00
2023-05-25T05:14:45.593Z,465.00
2023-05-25T05:15:45.706Z,464.00
2023-05-25T05:16:45.568Z,465.00
2023-05-25T05:17:45.567Z,465.00
2023-05-25T05:18:45.562Z,465.00
2023-05-25T05:19:45.538Z,465.00
2023-05-25T05:20:45.589Z,463.00
2023-05-25T05:21:45.510Z,463.00
2023-05-25T05:22:45.526Z,461.00
2023-05-25T05:23:45.489Z,464.00
2023-05-25T05:24:45.530Z,466.00
2023-05-25T05:25:45.740Z,468.00
2023-05-25T05:26:57.361Z,471.00
2023-05-25T05:27:46.517Z,474.00
2023-05-25T05:28:45.562Z,502.00
2023-05-25T05:29:45.514Z,743.00
2023-05-25T05:30:45.512Z,707.00
2023-05-25T05:31:45.592Z,709.00
2023-05-25T05:32:46.843Z,702.00
2023-05-25T05:33:46.041Z,751.00
2023-05-25T05:34:45.527Z,734.00
2023-05-25T05:35:45.653Z,735.00
2023-05-25T05:36:56.438Z,750.00
2023-05-25T05:37:46.520Z,836.00
2023-05-25T05:38:45.443Z,854.00
2023-05-25T05:39:45.467Z,935.00
2023-05-25T05:40:45.481Z,965.00
2023-05-25T05:41:45.412Z,998.00
2023-05-25T05:42:45.420Z,1006.00
2023-05-25T05:43:45.474Z,1007.00
2023-05-25T05:44:45.415Z,1019.00
2023-05-25T05:45:45.738Z,1031.00
2023-05-25T05:46:45.415Z,1046.00
2023-05-25T05:47:45.416Z,1066.00
2023-05-25T05:48:45.486Z,1084.00
2023-05-25T05:49:45.497Z,1091.00
2023-05-25T05:50:45.539Z,1097.00
2023-05-25T05:51:45.540Z,1157.00
2023-05-25T05:52:45.585Z,1165.00
2023-05-25T05:53:45.605Z,1181.00
2023-05-25T05:54:45.657Z,1195.00
2023-05-25T05:55:47.155Z,1203.00
2023-05-25T05:56:45.637Z,1211.00
2023-05-25T05:57:45.658Z,1219.00
2023-05-25T05:58:45.651Z,1224.00
2023-05-25T05:59:45.654Z,1229.00
2023-05-25T06:00:45.643Z,1238.00
2023-05-25T06:01:45.677Z,1244.00
2023-05-25T06:02:45.754Z,1288.00
2023-05-25T06:03:45.604Z,1298.00
2023-05-25T06:04:45.603Z,1302.00
2023-05-25T06:05:45.729Z,1305.00
2023-05-25T06:06:45.601Z,1305.00
2023-05-25T06:07:45.587Z,1309.00
2023-05-25T06:08:45.652Z,1328.00
2023-05-25T06:09:45.597Z,1336.00
2023-05-25T06:10:45.563Z,1344.00
2023-05-25T06:11:45.540Z,1351.00
2023-05-25T06:12:45.568Z,1354.00
2023-05-25T06:13:46.727Z,1366.00
2023-05-25T06:14:45.535Z,1379.00
2023-05-25T06:15:45.825Z,1388.00
2023-05-25T06:16:45.535Z,1382.00
2023-05-25T06:17:45.588Z,1401.00
2023-05-25T06:18:45.504Z,1432.00
2023-05-25T06:19:45.526Z,1439.00
2023-05-25T06:20:45.551Z,1443.00
2023-05-25T06:21:45.489Z,1416.00
2023-05-25T06:22:45.502Z,1436.00
2023-05-25T06:23:45.497Z,1440.00
2023-05-25T06:24:45.562Z,1440.00
2023-05-25T06:25:45.771Z,1455.00
2023-05-25T06:26:45.463Z,1468.00
2023-05-25T06:27:45.457Z,1475.00
2023-05-25T06:28:45.430Z,1473.00
2023-05-25T06:29:45.454Z,1474.00
2023-05-25T06:30:45.454Z,1472.00
2023-05-25T06:31:45.538Z,1473.00
2023-05-25T06:32:45.435Z,1480.00
2023-05-25T06:33:45.511Z,1486.00
2023-05-25T06:34:45.415Z,1491.00
2023-05-25T06:35:47.064Z,1493.00
2023-05-25T06:36:45.406Z,1130.00
2023-05-25T06:37:45.387Z,1191.00
2023-05-25T06:38:45.984Z,1080.00
2023-05-25T06:39:45.414Z,1098.00
2023-05-25T06:40:45.374Z,1077.00
2023-05-25T06:41:45.384Z,1037.00
2023-05-25T06:42:45.366Z,1007.00
2023-05-25T06:43:45.345Z,967.00
2023-05-25T06:44:45.386Z,928.00
2023-05-25T06:45:45.595Z,928.00
2023-05-25T06:46:45.378Z,920.00
2023-05-25T06:47:45.412Z,845.00
2023-05-25T06:48:45.337Z,754.00
2023-05-25T06:49:45.341Z,746.00
2023-05-25T06:50:45.291Z,730.00
2023-05-25T06:51:45.316Z,715.00
2023-05-25T06:52:45.294Z,701.00
2023-05-25T06:53:45.501Z,705.00
2023-05-25T06:54:45.287Z,721.00
2023-05-25T06:55:45.486Z,731.00
2023-05-25T06:56:45.264Z,738.00
2023-05-25T06:57:45.266Z,751.00
2023-05-25T06:58:45.511Z,761.00
2023-05-25T06:59:45.270Z,770.00
2023-05-25T07:00:46.661Z,779.00
2023-05-25T07:01:45.412Z,784.00
2023-05-25T07:02:45.431Z,781.00
2023-05-25T07:03:45.522Z,781.00
2023-05-25T07:04:45.606Z,784.00
2023-05-25T07:05:45.800Z,777.00
2023-05-25T07:06:45.643Z,772.00
2023-05-25T07:07:45.682Z,765.00
2023-05-25T07:08:46.020Z,775.00
2023-05-25T07:09:45.761Z,772.00
2023-05-25T07:10:46.613Z,766.00
2023-05-25T07:11:45.842Z,759.00
2023-05-25T07:12:45.887Z,758.00
2023-05-25T07:13:46.013Z,761.00
2023-05-25T07:14:45.972Z,758.00
2023-05-25T07:15:46.340Z,763.00
2023-05-25T07:16:46.003Z,766.00
2023-05-25T07:17:46.103Z,771.00
2023-05-25T07:18:46.509Z,776.00
2023-05-25T07:19:46.141Z,785.00
2023-05-25T07:20:46.255Z,798.00
2023-05-25T07:21:46.177Z,816.00
2023-05-25T07:22:46.147Z,814.00
2023-05-25T07:23:46.529Z,812.00
2023-05-25T07:24:46.213Z,811.00
2023-05-25T07:25:46.472Z,809.00
2023-05-25T07:26:46.324Z,815.00
2023-05-25T07:27:46.432Z,818.00
2023-05-25T07:28:46.528Z,831.00
2023-05-25T07:29:46.358Z,917.00
2023-05-25T07:30:46.399Z,907.00
2023-05-25T07:31:46.560Z,909.00
2023-05-25T07:32:46.468Z,787.00
2023-05-25T07:33:46.449Z,890.00
2023-05-25T07:34:46.611Z,772.00
2023-05-25T07:35:46.722Z,837.00
2023-05-25T07:36:46.543Z,718.00
2023-05-25T07:37:46.622Z,685.00
2023-05-25T07:38:47.042Z,687.00
2023-05-25T07:39:46.703Z,635.00
2023-05-25T07:40:46.747Z,616.00
2023-05-25T07:41:46.783Z,601.00
2023-05-25T07:42:46.844Z,564.00
2023-05-25T07:43:47.054Z,564.00
2023-05-25T07:44:46.943Z,555.00
2023-05-25T07:45:47.051Z,545.00
2023-05-25T07:46:47.018Z,541.00
2023-05-25T07:47:47.061Z,537.00
2023-05-25T07:48:47.131Z,539.00
2023-05-25T07:49:47.134Z,538.00
2023-05-25T07:50:47.236Z,539.00
2023-05-25T07:51:47.275Z,543.00
2023-05-25T07:52:47.342Z,554.00
2023-05-25T07:53:47.349Z,564.00
2023-05-25T07:54:47.421Z,570.00
2023-05-25T07:55:47.660Z,568.00
2023-05-25T07:56:47.531Z,571.00
2023-05-25T07:57:47.550Z,620.00
2023-05-25T07:58:48.063Z,626.00
2023-05-25T07:59:47.694Z,589.00
2023-05-25T08:00:47.726Z,573.00
2023-05-25T08:01:47.856Z,577.00
2023-05-25T08:02:48.008Z,575.00
2023-05-25T08:03:50.164Z,569.00
2023-05-25T08:04:48.066Z,565.00
2023-05-25T08:05:48.081Z,563.00
2023-05-25T08:06:48.117Z,570.00
2023-05-25T08:07:48.327Z,583.00
2023-05-25T08:08:48.608Z,597.00
2023-05-25T08:09:48.231Z,594.00
2023-05-25T08:10:48.260Z,589.00
2023-05-25T08:11:48.329Z,582.00
2023-05-25T08:12:50.262Z,582.00
2023-05-25T08:13:48.552Z,584.00
2023-05-25T08:14:48.301Z,588.00
2023-05-25T08:15:48.305Z,589.00
2023-05-25T08:16:48.370Z,589.00
2023-05-25T08:17:48.313Z,590.00
2023-05-25T08:18:48.550Z,593.00
2023-05-25T08:19:48.265Z,608.00
2023-05-25T08:20:48.481Z,613.00
2023-05-25T08:21:48.287Z,617.00
2023-05-25T08:22:48.566Z,619.00
2023-05-25T08:23:48.564Z,630.00
2023-05-25T08:24:48.247Z,647.00
2023-05-25T08:25:48.230Z,647.00
2023-05-25T08:27:48.221Z,722.00
2023-05-25T08:28:48.548Z,726.00
2023-05-25T08:29:48.207Z,771.00
2023-05-25T08:30:48.190Z,781.00
2023-05-25T08:31:48.221Z,768.00
2023-05-25T08:32:48.263Z,759.00
2023-05-25T08:33:48.180Z,729.00
2023-05-25T08:34:48.155Z,712.00
2023-05-25T08:35:48.162Z,703.00
2023-05-25T08:36:48.176Z,708.00
2023-05-25T08:37:48.177Z,708.00
2023-05-25T08:38:48.548Z,762.00
2023-05-25T08:39:48.147Z,761.00
2023-05-25T08:40:48.137Z,805.00
2023-05-25T08:41:48.155Z,803.00
2023-05-25T08:42:48.125Z,796.00
2023-05-25T08:43:48.114Z,805.00
2023-05-25T08:44:48.103Z,893.00
2023-05-25T08:45:48.262Z,923.00
2023-05-25T08:46:48.114Z,939.00
2023-05-25T08:47:48.148Z,949.00
2023-05-25T08:48:48.224Z,953.00
2023-05-25T08:49:48.608Z,987.00
2023-05-25T08:50:48.244Z,1032.00
2023-05-25T08:51:48.326Z,1054.00
2023-05-25T08:52:48.310Z,1080.00
2023-05-25T08:53:48.311Z,1091.00
2023-05-25T08:54:48.318Z,1098.00
2023-05-25T08:55:48.333Z,1099.00
2023-05-25T08:56:48.425Z,1099.00
2023-05-25T08:57:48.347Z,1116.00
2023-05-25T08:58:48.852Z,1129.00
2023-05-25T08:59:48.501Z,1103.00
2023-05-25T09:00:48.372Z,1041.00
2023-05-25T09:01:48.441Z,1144.00
2023-05-25T09:02:48.458Z,1174.00
2023-05-25T09:03:48.455Z,1177.00
2023-05-25T09:04:48.403Z,1172.00
2023-05-25T09:05:48.486Z,1165.00
2023-05-25T09:06:57.253Z,1174.00
2023-05-25T09:07:49.400Z,1185.00
2023-05-25T09:08:48.385Z,1241.00
2023-05-25T09:09:48.381Z,1266.00
2023-05-25T09:10:48.372Z,1280.00
2023-05-25T09:11:48.393Z,1290.00
2023-05-25T09:12:48.345Z,1300.00
2023-05-25T09:13:48.349Z,1297.00
2023-05-25T09:14:48.498Z,1276.00
2023-05-25T09:15:48.348Z,1272.00
2023-05-25T09:16:48.403Z,1264.00
2023-05-25T09:17:48.337Z,1264.00
2023-05-25T09:18:48.576Z,1268.00
2023-05-25T09:19:48.378Z,1271.00
2023-05-25T09:20:48.570Z,1271.00
2023-05-25T09:21:49.315Z,1265.00
2023-05-25T09:22:48.500Z,1261.00
2023-05-25T09:23:48.566Z,1253.00
2023-05-25T09:24:48.632Z,1259.00
2023-05-25T09:25:48.703Z,1261.00
2023-05-25T09:26:48.947Z,1264.00
2023-05-25T09:27:48.826Z,1264.00
2023-05-25T09:28:49.065Z,991.00
2023-05-25T09:29:48.840Z,951.00
2023-05-25T09:30:48.844Z,860.00
2023-05-25T09:31:48.849Z,841.00
2023-05-25T09:32:48.877Z,844.00
2023-05-25T09:33:49.079Z,822.00
2023-05-25T09:34:48.832Z,708.00
2023-05-25T09:35:48.937Z,681.00
2023-05-25T09:36:49.211Z,692.00
2023-05-25T09:37:49.054Z,700.00
2023-05-25T09:38:49.095Z,816.00
2023-05-25T09:39:49.166Z,817.00
2023-05-25T09:40:49.112Z,797.00
2023-05-25T09:41:49.100Z,774.00
2023-05-25T09:42:48.982Z,772.00
2023-05-25T09:43:58.082Z,774.00
2023-05-25T09:44:50.009Z,773.00
2023-05-25T09:45:49.070Z,769.00
2023-05-25T09:46:49.087Z,764.00
2023-05-25T09:47:49.029Z,759.00
2023-05-25T09:48:49.111Z,755.00
2023-05-25T09:49:49.009Z,753.00
2023-05-25T09:50:49.994Z,749.00
2023-05-25T09:51:48.960Z,745.00
2023-05-25T09:52:48.978Z,743.00
2023-05-25T09:53:48.954Z,741.00
2023-05-25T09:54:48.947Z,739.00
2023-05-25T09:55:53.973Z,736.00
2023-05-25T09:56:49.927Z,730.00
2023-05-25T09:57:48.954Z,725.00
2023-05-25T09:58:48.924Z,720.00
2023-05-25T09:59:49.108Z,717.00
2023-05-25T10:00:48.916Z,714.00
2023-05-25T10:01:48.953Z,709.00
2023-05-25T10:02:48.959Z,705.00
2023-05-25T10:04:02.773Z,699.00
2023-05-25T10:04:50.124Z,696.00
2023-05-25T10:05:48.906Z,692.00
2023-05-25T10:06:48.871Z,689.00
2023-05-25T10:07:48.885Z,682.00
2023-05-25T10:08:48.879Z,679.00
2023-05-25T10:09:48.895Z,676.00
2023-05-25T10:10:48.852Z,673.00
2023-05-25T10:11:48.858Z,669.00
2023-05-25T10:12:48.885Z,668.00
2023-05-25T10:13:48.878Z,663.00
2023-05-25T10:14:48.960Z,662.00
2023-05-25T10:15:49.067Z,659.00
2023-05-25T10:16:49.054Z,655.00
2023-05-25T10:17:49.179Z,651.00
2023-05-25T10:18:49.152Z,648.00
2023-05-25T10:19:49.621Z,646.00
2023-05-25T10:20:49.361Z,644.00
2023-05-25T10:21:49.303Z,645.00
2023-05-25T10:22:49.371Z,645.00
2023-05-25T10:23:49.435Z,642.00
2023-05-25T10:24:49.653Z,642.00
2023-05-25T10:25:49.486Z,640.00
2023-05-25T10:26:49.546Z,636.00
2023-05-25T10:27:50.323Z,626.00
2023-05-25T10:28:49.702Z,625.00
2023-05-25T10:29:50.098Z,621.00
2023-05-25T10:30:49.785Z,620.00
2023-05-25T10:31:49.908Z,620.00
2023-05-25T10:32:49.945Z,617.00
2023-05-25T10:33:52.156Z,611.00
2023-05-25T10:34:50.098Z,609.00
2023-05-25T10:36:02.516Z,607.00
2023-05-25T10:36:50.962Z,606.00
2023-05-25T10:37:49.891Z,607.00
2023-05-25T10:38:49.872Z,604.00
2023-05-25T10:39:49.920Z,604.00
2023-05-25T10:40:49.895Z,603.00
2023-05-25T10:41:49.879Z,601.00
2023-05-25T10:42:49.876Z,602.00
2023-05-25T10:43:49.862Z,604.00
2023-05-25T10:44:50.104Z,602.00
2023-05-25T10:45:49.848Z,600.00
2023-05-25T10:46:49.894Z,598.00
2023-05-25T10:47:49.902Z,599.00
2023-05-25T10:48:49.808Z,597.00
2023-05-25T10:49:50.102Z,597.00
2023-05-25T10:50:49.817Z,593.00
2023-05-25T10:51:49.810Z,591.00
2023-05-25T10:52:49.813Z,591.00
2023-05-25T10:53:49.792Z,589.00
2023-05-25T10:54:49.801Z,585.00
2023-05-25T10:55:49.797Z,584.00
2023-05-25T10:56:49.786Z,583.00
2023-05-25T10:57:49.763Z,580.00
2023-05-25T10:58:49.761Z,576.00
2023-05-25T10:59:50.099Z,577.00
2023-05-25T11:00:49.781Z,577.00
2023-05-25T11:01:49.786Z,579.00
2023-05-25T11:02:49.856Z,578.00
2023-05-25T11:03:49.821Z,577.00
2023-05-25T11:04:50.117Z,574.00
2023-05-25T11:05:49.834Z,573.00
2023-05-25T11:06:49.832Z,573.00
2023-05-25T11:07:49.882Z,574.00
2023-05-25T11:08:49.941Z,575.00
2023-05-25T11:09:49.929Z,577.00
2023-05-25T11:10:49.932Z,578.00
2023-05-25T11:11:49.940Z,572.00
2023-05-25T11:12:49.946Z,566.00
2023-05-25T11:13:49.968Z,564.00
2023-05-25T11:14:50.002Z,563.00
2023-05-25T11:15:49.996Z,562.00
2023-05-25T11:16:50.025Z,559.00
2023-05-25T11:17:50.078Z,558.00
2023-05-25T11:18:50.057Z,558.00
2023-05-25T11:19:51.475Z,556.00
2023-05-25T11:20:50.101Z,555.00
2023-05-25T11:21:50.107Z,554.00
2023-05-25T11:22:52.266Z,551.00
2023-05-25T11:23:50.134Z,549.00
2023-05-25T11:24:50.151Z,550.00
2023-05-25T11:25:50.169Z,547.00
2023-05-25T11:26:50.195Z,547.00
2023-05-25T11:27:50.224Z,545.00
2023-05-25T11:28:50.337Z,546.00
2023-05-25T11:29:50.317Z,544.00
2023-05-25T11:30:50.361Z,544.00
2023-05-25T11:31:50.422Z,543.00
2023-05-25T11:32:50.519Z,541.00
2023-05-25T11:33:50.432Z,541.00
2023-05-25T11:34:50.439Z,539.00
2023-05-25T11:35:50.448Z,539.00
2023-05-25T11:36:50.469Z,539.00
2023-05-25T11:37:50.497Z,538.00
2023-05-25T11:39:02.377Z,536.00
2023-05-25T11:39:51.635Z,533.00
2023-05-25T11:40:50.711Z,535.00
2023-05-25T11:41:50.630Z,532.00
2023-05-25T11:42:50.625Z,529.00
2023-05-25T11:43:50.615Z,528.00
2023-05-25T11:44:50.588Z,527.00
2023-05-25T11:45:50.584Z,527.00
2023-05-25T11:46:50.811Z,527.00
2023-05-25T11:47:50.583Z,528.00
2023-05-25T11:48:50.558Z,524.00
2023-05-25T11:49:50.616Z,522.00
2023-05-25T11:50:50.552Z,521.00
2023-05-25T11:51:50.555Z,521.00
2023-05-25T11:52:50.532Z,523.00
2023-05-25T11:53:50.539Z,524.00
2023-05-25T11:54:50.532Z,522.00
2023-05-25T11:55:53.684Z,520.00
2023-05-25T11:56:51.544Z,517.00
2023-05-25T11:57:50.509Z,515.00
2023-05-25T11:58:50.507Z,514.00
2023-05-25T11:59:50.502Z,513.00
2023-05-25T12:00:50.514Z,514.00
2023-05-25T12:01:50.455Z,514.00
2023-05-25T12:02:50.602Z,513.00
2023-05-25T12:03:50.577Z,514.00
2023-05-25T12:04:50.490Z,515.00
2023-05-25T12:05:50.435Z,516.00
2023-05-25T12:06:50.492Z,518.00
2023-05-25T12:07:50.437Z,515.00
2023-05-25T12:08:50.462Z,514.00
2023-05-25T12:09:50.431Z,514.00
2023-05-25T12:10:50.565Z,512.00
2023-05-25T12:11:50.412Z,510.00
2023-05-25T12:12:50.388Z,512.00
2023-05-25T12:13:50.434Z,512.00
2023-05-25T12:14:50.456Z,512.00
2023-05-25T12:15:50.479Z,511.00
2023-05-25T12:16:50.544Z,512.00
2023-05-25T12:17:50.602Z,512.00
2023-05-25T12:18:50.560Z,512.00
2023-05-25T12:19:50.606Z,510.00
2023-05-25T12:20:50.737Z,510.00
2023-05-25T12:21:50.667Z,510.00
2023-05-25T12:22:50.695Z,510.00
2023-05-25T12:23:50.740Z,508.00
2023-05-25T12:24:50.760Z,508.00
2023-05-25T12:25:51.448Z,507.00
2023-05-25T12:26:50.850Z,505.00